sensor_id;sensor_type;location;lat;lon;timestamp;P1;durP1;ratioP1;P2;durP2;ratioP2
74369;SDS011;71062;44.520;11.342;2024-01-30T00:01:55;48.45;;;18.25;;
74369;SDS011;71062;44.520;11.342;2024-01-30T00:04:21;54.90;;;19.05;;
74369;SDS011;71062;44.520;11.342;2024-01-30T00:06:46;51.60;;;18.33;;
74369;SDS011;71062;44.520;11.342;2024-01-30T08:39:23;39.50;;;16.67;;
74369;SDS011;71062;44.520;11.342;2024-01-30T08:41:49;37.25;;;16.73;;
74369;SDS011;71062;44.520;11.342;2024-01-30T08:44:16;38.63;;;16.67;;
74369;SDS011;71062;44.520;11.342;2024-01-30T08:46:43;36.58;;;17.05;;
74369;SDS011;71062;44.520;11.342;2024-01-30T08:49:10;36.55;;;15.68;;
74369;SDS011;71062;44.520;11.342;2024-01-30T08:51:38;36.35;;;16.70;;
74369;SDS011;71062;44.520;11.342;2024-01-30T08:54:07;40.35;;;16.15;;
74369;SDS011;71062;44.520;11.342;2024-01-30T08:56:33;33.33;;;15.63;;
74369;SDS011;71062;44.520;11.342;2024-01-30T08:58:58;40.20;;;16.00;;
74369;SDS011;71062;44.520;11.342;2024-01-30T09:01:27;39.22;;;15.95;;
74369;SDS011;71062;44.520;11.342;2024-01-30T09:03:53;35.97;;;16.83;;
74369;SDS011;71062;44.520;11.342;2024-01-30T09:06:18;35.40;;;15.90;;
74369;SDS011;71062;44.520;11.342;2024-01-30T09:08:44;33.72;;;14.40;;
74369;SDS011;71062;44.520;11.342;2024-01-30T09:11:09;31.33;;;14.88;;
74369;SDS011;71062;44.520;11.342;2024-01-30T09:13:36;33.22;;;16.27;;
74369;SDS011;71062;44.520;11.342;2024-01-30T09:16:02;34.92;;;16.33;;
74369;SDS011;71062;44.520;11.342;2024-01-30T09:18:28;31.63;;;14.75;;
74369;SDS011;71062;44.520;11.342;2024-01-30T09:20:53;31.65;;;15.00;;
74369;SDS011;71062;44.520;11.342;2024-01-30T09:23:19;35.58;;;16.25;;
74369;SDS011;71062;44.520;11.342;2024-01-30T09:25:45;38.42;;;16.15;;
74369;SDS011;71062;44.520;11.342;2024-01-30T09:28:10;38.15;;;16.02;;
74369;SDS011;71062;44.520;11.342;2024-01-30T09:30:36;34.50;;;17.02;;
74369;SDS011;71062;44.520;11.342;2024-01-30T09:33:04;37.92;;;17.55;;
74369;SDS011;71062;44.520;11.342;2024-01-30T09:35:30;33.67;;;16.38;;
74369;SDS011;71062;44.520;11.342;2024-01-30T09:37:56;36.80;;;17.42;;
74369;SDS011;71062;44.520;11.342;2024-01-30T09:40:22;39.83;;;17.50;;
74369;SDS011;71062;44.520;11.342;2024-01-30T09:42:49;35.75;;;16.92;;
74369;SDS011;71062;44.520;11.342;2024-01-30T09:45:19;38.92;;;17.52;;
74369;SDS011;71062;44.520;11.342;2024-01-30T09:47:45;31.33;;;14.52;;
74369;SDS011;71062;44.520;11.342;2024-01-30T09:50:12;34.13;;;15.38;;
74369;SDS011;71062;44.520;11.342;2024-01-30T09:57:31;39.28;;;17.42;;
74369;SDS011;71062;44.520;11.342;2024-01-30T09:59:57;37.80;;;17.75;;
74369;SDS011;71062;44.520;11.342;2024-01-30T10:02:22;38.55;;;17.85;;
74369;SDS011;71062;44.520;11.342;2024-01-30T10:04:48;38.08;;;17.65;;
74369;SDS011;71062;44.520;11.342;2024-01-30T10:07:16;38.92;;;17.75;;
74369;SDS011;71062;44.520;11.342;2024-01-30T10:09:42;37.08;;;19.05;;
74369;SDS011;71062;44.520;11.342;2024-01-30T10:12:08;42.13;;;20.08;;
74369;SDS011;71062;44.520;11.342;2024-01-30T10:14:37;41.95;;;18.90;;
74369;SDS011;71062;44.520;11.342;2024-01-30T10:17:09;41.55;;;19.67;;
74369;SDS011;71062;44.520;11.342;2024-01-30T10:19:36;40.50;;;18.80;;
74369;SDS011;71062;44.520;11.342;2024-01-30T10:22:05;37.92;;;18.33;;
74369;SDS011;71062;44.520;11.342;2024-01-30T10:24:31;41.40;;;19.38;;
74369;SDS011;71062;44.520;11.342;2024-01-30T10:26:58;42.75;;;19.25;;
74369;SDS011;71062;44.520;11.342;2024-01-30T10:29:24;40.25;;;18.23;;
74369;SDS011;71062;44.520;11.342;2024-01-30T10:32:02;42.60;;;18.92;;
74369;SDS011;71062;44.520;11.342;2024-01-30T10:34:30;38.85;;;19.45;;
74369;SDS011;71062;44.520;11.342;2024-01-30T10:39:31;43.00;;;18.90;;
74369;SDS011;71062;44.520;11.342;2024-01-30T10:42:02;34.58;;;17.00;;
74369;SDS011;71062;44.520;11.342;2024-01-30T10:44:33;39.83;;;18.67;;
74369;SDS011;71062;44.520;11.342;2024-01-30T10:47:11;41.28;;;18.10;;
74369;SDS011;71062;44.520;11.342;2024-01-30T10:49:40;41.15;;;18.35;;
74369;SDS011;71062;44.520;11.342;2024-01-30T10:52:08;31.65;;;14.80;;
74369;SDS011;71062;44.520;11.342;2024-01-30T10:54:34;34.90;;;16.02;;
74369;SDS011;71062;44.520;11.342;2024-01-30T10:57:01;33.92;;;15.98;;
74369;SDS011;71062;44.520;11.342;2024-01-30T10:59:30;33.97;;;17.20;;
74369;SDS011;71062;44.520;11.342;2024-01-30T11:01:57;37.22;;;16.98;;
74369;SDS011;71062;44.520;11.342;2024-01-30T11:04:24;32.30;;;14.27;;
74369;SDS011;71062;44.520;11.342;2024-01-30T11:06:52;25.98;;;12.50;;
74369;SDS011;71062;44.520;11.342;2024-01-30T11:09:19;29.58;;;13.95;;
74369;SDS011;71062;44.520;11.342;2024-01-30T11:11:51;32.88;;;15.82;;
74369;SDS011;71062;44.520;11.342;2024-01-30T11:14:25;31.88;;;15.40;;
74369;SDS011;71062;44.520;11.342;2024-01-30T11:16:51;29.60;;;13.90;;
74369;SDS011;71062;44.520;11.342;2024-01-30T11:19:27;30.15;;;14.95;;
74369;SDS011;71062;44.520;11.342;2024-01-30T11:21:56;34.42;;;15.02;;
74369;SDS011;71062;44.520;11.342;2024-01-30T11:24:25;30.38;;;13.18;;
74369;SDS011;71062;44.520;11.342;2024-01-30T11:26:58;18.55;;;9.80;;
74369;SDS011;71062;44.520;11.342;2024-01-30T11:29:24;26.13;;;11.32;;
74369;SDS011;71062;44.520;11.342;2024-01-30T11:31:56;27.90;;;11.13;;
74369;SDS011;71062;44.520;11.342;2024-01-30T11:34:22;34.72;;;14.02;;
74369;SDS011;71062;44.520;11.342;2024-01-30T11:36:52;33.90;;;14.20;;
74369;SDS011;71062;44.520;11.342;2024-01-30T11:39:24;28.85;;;13.32;;
74369;SDS011;71062;44.520;11.342;2024-01-30T11:44:18;31.80;;;13.55;;
74369;SDS011;71062;44.520;11.342;2024-01-30T11:46:48;36.35;;;14.25;;
74369;SDS011;71062;44.520;11.342;2024-01-30T11:49:14;32.08;;;14.30;;
74369;SDS011;71062;44.520;11.342;2024-01-30T11:51:40;26.20;;;12.10;;
74369;SDS011;71062;44.520;11.342;2024-01-30T11:54:07;27.15;;;13.55;;
74369;SDS011;71062;44.520;11.342;2024-01-30T11:56:33;31.55;;;13.10;;
74369;SDS011;71062;44.520;11.342;2024-01-30T11:58:59;27.20;;;13.15;;
74369;SDS011;71062;44.520;11.342;2024-01-30T12:01:26;23.50;;;12.25;;
74369;SDS011;71062;44.520;11.342;2024-01-30T12:03:52;29.90;;;13.73;;
74369;SDS011;71062;44.520;11.342;2024-01-30T12:06:18;30.80;;;14.25;;
74369;SDS011;71062;44.520;11.342;2024-01-30T12:08:55;23.92;;;12.25;;
74369;SDS011;71062;44.520;11.342;2024-01-30T12:11:25;31.50;;;14.02;;
74369;SDS011;71062;44.520;11.342;2024-01-30T12:13:51;30.42;;;13.93;;
74369;SDS011;71062;44.520;11.342;2024-01-30T12:16:18;27.63;;;14.05;;
74369;SDS011;71062;44.520;11.342;2024-01-30T12:18:44;23.92;;;10.57;;
74369;SDS011;71062;44.520;11.342;2024-01-30T12:21:10;29.50;;;13.63;;
74369;SDS011;71062;44.520;11.342;2024-01-30T12:23:35;28.33;;;14.32;;
74369;SDS011;71062;44.520;11.342;2024-01-30T12:26:01;30.20;;;14.50;;
74369;SDS011;71062;44.520;11.342;2024-01-30T12:28:32;30.15;;;15.38;;
74369;SDS011;71062;44.520;11.342;2024-01-30T12:31:02;32.65;;;15.13;;
74369;SDS011;71062;44.520;11.342;2024-01-30T12:33:30;31.35;;;14.73;;
74369;SDS011;71062;44.520;11.342;2024-01-30T12:35:57;29.02;;;14.77;;
74369;SDS011;71062;44.520;11.342;2024-01-30T12:38:26;27.15;;;14.68;;
74369;SDS011;71062;44.520;11.342;2024-01-30T12:40:55;27.38;;;14.80;;
74369;SDS011;71062;44.520;11.342;2024-01-30T12:43:21;31.35;;;14.45;;
74369;SDS011;71062;44.520;11.342;2024-01-30T12:45:49;29.85;;;14.85;;
74369;SDS011;71062;44.520;11.342;2024-01-30T12:48:15;27.42;;;12.32;;
74369;SDS011;71062;44.520;11.342;2024-01-30T12:50:41;32.97;;;14.05;;
74369;SDS011;71062;44.520;11.342;2024-01-30T12:53:07;27.73;;;12.48;;
74369;SDS011;71062;44.520;11.342;2024-01-30T12:55:34;27.13;;;15.35;;
74369;SDS011;71062;44.520;11.342;2024-01-30T12:58:00;36.72;;;16.38;;
74369;SDS011;71062;44.520;11.342;2024-01-30T13:00:26;28.52;;;15.13;;
74369;SDS011;71062;44.520;11.342;2024-01-30T13:02:52;28.33;;;13.55;;
74369;SDS011;71062;44.520;11.342;2024-01-30T13:05:18;28.80;;;14.05;;
74369;SDS011;71062;44.520;11.342;2024-01-30T13:07:44;31.42;;;15.93;;
74369;SDS011;71062;44.520;11.342;2024-01-30T13:10:10;29.65;;;15.60;;
74369;SDS011;71062;44.520;11.342;2024-01-30T13:12:37;29.80;;;15.32;;
74369;SDS011;71062;44.520;11.342;2024-01-30T13:15:03;29.77;;;14.75;;
74369;SDS011;71062;44.520;11.342;2024-01-30T13:17:31;31.65;;;15.55;;
74369;SDS011;71062;44.520;11.342;2024-01-30T13:19:57;28.45;;;15.18;;
74369;SDS011;71062;44.520;11.342;2024-01-30T13:22:23;28.90;;;14.45;;
74369;SDS011;71062;44.520;11.342;2024-01-30T13:24:49;29.65;;;15.38;;
74369;SDS011;71062;44.520;11.342;2024-01-30T13:27:15;27.75;;;14.98;;
74369;SDS011;71062;44.520;11.342;2024-01-30T13:29:42;27.45;;;14.80;;
74369;SDS011;71062;44.520;11.342;2024-01-30T13:32:08;30.10;;;15.48;;
74369;SDS011;71062;44.520;11.342;2024-01-30T13:34:33;27.15;;;15.05;;
74369;SDS011;71062;44.520;11.342;2024-01-30T13:36:59;22.25;;;12.68;;
74369;SDS011;71062;44.520;11.342;2024-01-30T13:39:25;22.75;;;12.82;;
74369;SDS011;71062;44.520;11.342;2024-01-30T13:41:50;27.65;;;13.80;;
74369;SDS011;71062;44.520;11.342;2024-01-30T13:44:17;25.45;;;14.90;;
74369;SDS011;71062;44.520;11.342;2024-01-30T13:46:43;29.52;;;15.65;;
74369;SDS011;71062;44.520;11.342;2024-01-30T13:49:09;25.77;;;13.57;;
74369;SDS011;71062;44.520;11.342;2024-01-30T13:51:34;23.83;;;13.68;;
74369;SDS011;71062;44.520;11.342;2024-01-30T13:54:00;26.40;;;14.98;;
74369;SDS011;71062;44.520;11.342;2024-01-30T13:56:27;25.20;;;13.27;;
74369;SDS011;71062;44.520;11.342;2024-01-30T13:58:54;29.48;;;14.90;;
74369;SDS011;71062;44.520;11.342;2024-01-30T14:01:21;29.42;;;14.98;;
74369;SDS011;71062;44.520;11.342;2024-01-30T14:03:47;28.13;;;14.85;;
74369;SDS011;71062;44.520;11.342;2024-01-30T14:06:13;28.00;;;14.68;;
74369;SDS011;71062;44.520;11.342;2024-01-30T14:08:39;29.10;;;14.88;;
74369;SDS011;71062;44.520;11.342;2024-01-30T14:11:05;29.13;;;14.40;;
74369;SDS011;71062;44.520;11.342;2024-01-30T14:13:31;29.00;;;15.00;;
74369;SDS011;71062;44.520;11.342;2024-01-30T14:15:57;25.40;;;14.90;;
74369;SDS011;71062;44.520;11.342;2024-01-30T14:18:24;26.38;;;13.90;;
74369;SDS011;71062;44.520;11.342;2024-01-30T14:20:50;28.75;;;14.60;;
74369;SDS011;71062;44.520;11.342;2024-01-30T14:23:17;29.70;;;14.70;;
74369;SDS011;71062;44.520;11.342;2024-01-30T14:29:04;27.08;;;14.93;;
74369;SDS011;71062;44.520;11.342;2024-01-30T14:31:30;29.58;;;16.48;;
74369;SDS011;71062;44.520;11.342;2024-01-30T14:33:56;32.60;;;16.17;;
74369;SDS011;71062;44.520;11.342;2024-01-30T14:36:21;30.73;;;16.52;;
74369;SDS011;71062;44.520;11.342;2024-01-30T14:38:47;29.58;;;15.20;;
74369;SDS011;71062;44.520;11.342;2024-01-30T14:41:13;33.78;;;16.48;;
74369;SDS011;71062;44.520;11.342;2024-01-30T14:43:40;36.08;;;16.95;;
74369;SDS011;71062;44.520;11.342;2024-01-30T14:46:06;30.80;;;15.75;;
74369;SDS011;71062;44.520;11.342;2024-01-30T14:48:32;34.55;;;17.05;;
74369;SDS011;71062;44.520;11.342;2024-01-30T14:50:58;34.58;;;16.55;;
74369;SDS011;71062;44.520;11.342;2024-01-30T14:53:24;38.70;;;17.67;;
74369;SDS011;71062;44.520;11.342;2024-01-30T14:55:50;34.30;;;16.90;;
74369;SDS011;71062;44.520;11.342;2024-01-30T14:58:15;33.45;;;17.00;;
74369;SDS011;71062;44.520;11.342;2024-01-30T15:00:41;35.50;;;16.77;;
74369;SDS011;71062;44.520;11.342;2024-01-30T15:03:08;31.27;;;16.20;;
74369;SDS011;71062;44.520;11.342;2024-01-30T15:05:34;32.22;;;15.85;;
74369;SDS011;71062;44.520;11.342;2024-01-30T15:08:00;35.67;;;16.42;;
74369;SDS011;71062;44.520;11.342;2024-01-30T15:10:27;29.85;;;15.90;;
74369;SDS011;71062;44.520;11.342;2024-01-30T15:12:52;33.35;;;16.45;;
74369;SDS011;71062;44.520;11.342;2024-01-30T15:15:18;30.40;;;16.08;;
74369;SDS011;71062;44.520;11.342;2024-01-30T15:17:44;32.88;;;16.58;;
74369;SDS011;71062;44.520;11.342;2024-01-30T15:20:10;29.40;;;16.33;;
74369;SDS011;71062;44.520;11.342;2024-01-30T15:22:36;33.22;;;16.50;;
74369;SDS011;71062;44.520;11.342;2024-01-30T15:25:02;37.20;;;16.13;;
74369;SDS011;71062;44.520;11.342;2024-01-30T15:27:28;26.33;;;15.20;;
74369;SDS011;71062;44.520;11.342;2024-01-30T15:29:54;36.72;;;16.25;;
74369;SDS011;71062;44.520;11.342;2024-01-30T15:32:20;32.90;;;16.75;;
74369;SDS011;71062;44.520;11.342;2024-01-30T15:34:46;37.85;;;17.55;;
74369;SDS011;71062;44.520;11.342;2024-01-30T15:37:12;38.50;;;18.05;;
74369;SDS011;71062;44.520;11.342;2024-01-30T15:39:38;36.75;;;16.92;;
74369;SDS011;71062;44.520;11.342;2024-01-30T15:42:03;38.95;;;19.02;;
74369;SDS011;71062;44.520;11.342;2024-01-30T15:44:29;37.88;;;18.40;;
74369;SDS011;71062;44.520;11.342;2024-01-30T15:46:56;37.67;;;19.20;;
74369;SDS011;71062;44.520;11.342;2024-01-30T15:49:23;37.95;;;17.80;;
74369;SDS011;71062;44.520;11.342;2024-01-30T15:51:50;36.60;;;18.55;;
74369;SDS011;71062;44.520;11.342;2024-01-30T15:54:15;44.53;;;19.27;;
74369;SDS011;71062;44.520;11.342;2024-01-30T15:56:42;38.85;;;18.80;;
74369;SDS011;71062;44.520;11.342;2024-01-30T15:59:08;39.15;;;18.67;;
74369;SDS011;71062;44.520;11.342;2024-01-30T16:01:34;37.90;;;19.55;;
74369;SDS011;71062;44.520;11.342;2024-01-30T16:04:00;36.40;;;19.52;;
74369;SDS011;71062;44.520;11.342;2024-01-30T16:06:26;38.28;;;19.02;;
74369;SDS011;71062;44.520;11.342;2024-01-30T16:08:52;40.50;;;20.02;;
74369;SDS011;71062;44.520;11.342;2024-01-30T16:11:17;37.30;;;18.98;;
74369;SDS011;71062;44.520;11.342;2024-01-30T16:13:43;36.95;;;18.50;;
74369;SDS011;71062;44.520;11.342;2024-01-30T16:16:09;41.33;;;20.13;;
74369;SDS011;71062;44.520;11.342;2024-01-30T16:18:35;39.13;;;20.00;;
74369;SDS011;71062;44.520;11.342;2024-01-30T16:21:01;38.17;;;19.48;;
74369;SDS011;71062;44.520;11.342;2024-01-30T16:23:27;40.95;;;21.58;;
74369;SDS011;71062;44.520;11.342;2024-01-30T16:25:53;40.08;;;21.50;;
74369;SDS011;71062;44.520;11.342;2024-01-30T16:28:23;44.08;;;20.08;;
74369;SDS011;71062;44.520;11.342;2024-01-30T16:30:49;37.78;;;19.42;;
74369;SDS011;71062;44.520;11.342;2024-01-30T16:33:15;43.08;;;19.25;;
74369;SDS011;71062;44.520;11.342;2024-01-30T16:35:43;41.85;;;21.17;;
74369;SDS011;71062;44.520;11.342;2024-01-30T16:38:08;41.25;;;19.30;;
74369;SDS011;71062;44.520;11.342;2024-01-30T16:40:34;39.20;;;20.92;;
74369;SDS011;71062;44.520;11.342;2024-01-30T16:43:00;43.30;;;20.35;;
74369;SDS011;71062;44.520;11.342;2024-01-30T16:45:25;42.33;;;20.83;;
74369;SDS011;71062;44.520;11.342;2024-01-30T16:47:51;40.05;;;19.80;;
74369;SDS011;71062;44.520;11.342;2024-01-30T16:50:17;41.50;;;20.63;;
74369;SDS011;71062;44.520;11.342;2024-01-30T16:52:43;43.13;;;19.58;;
74369;SDS011;71062;44.520;11.342;2024-01-30T16:55:09;45.85;;;20.77;;
74369;SDS011;71062;44.520;11.342;2024-01-30T16:57:34;47.42;;;22.13;;
74369;SDS011;71062;44.520;11.342;2024-01-30T17:00:00;45.08;;;22.25;;
74369;SDS011;71062;44.520;11.342;2024-01-30T17:02:27;43.80;;;20.92;;
74369;SDS011;71062;44.520;11.342;2024-01-30T17:04:52;44.33;;;20.52;;
74369;SDS011;71062;44.520;11.342;2024-01-30T17:07:18;42.40;;;20.10;;
74369;SDS011;71062;44.520;11.342;2024-01-30T17:09:44;46.45;;;21.65;;
74369;SDS011;71062;44.520;11.342;2024-01-30T17:12:10;45.75;;;21.10;;
74369;SDS011;71062;44.520;11.342;2024-01-30T17:14:38;44.80;;;21.50;;
74369;SDS011;71062;44.520;11.342;2024-01-30T17:17:06;47.35;;;22.85;;
74369;SDS011;71062;44.520;11.342;2024-01-30T17:19:31;44.00;;;21.73;;
74369;SDS011;71062;44.520;11.342;2024-01-30T17:21:58;45.72;;;21.67;;
74369;SDS011;71062;44.520;11.342;2024-01-30T17:24:24;44.90;;;21.42;;
74369;SDS011;71062;44.520;11.342;2024-01-30T17:26:49;44.55;;;22.63;;
74369;SDS011;71062;44.520;11.342;2024-01-30T17:29:15;46.97;;;22.13;;
74369;SDS011;71062;44.520;11.342;2024-01-30T17:31:43;45.90;;;22.10;;
74369;SDS011;71062;44.520;11.342;2024-01-30T17:34:10;45.88;;;23.15;;
74369;SDS011;71062;44.520;11.342;2024-01-30T17:36:38;43.97;;;20.92;;
74369;SDS011;71062;44.520;11.342;2024-01-30T17:39:03;41.97;;;21.65;;
74369;SDS011;71062;44.520;11.342;2024-01-30T17:41:32;47.08;;;22.88;;
74369;SDS011;71062;44.520;11.342;2024-01-30T17:43:57;48.80;;;22.95;;
74369;SDS011;71062;44.520;11.342;2024-01-30T17:46:23;44.08;;;21.88;;
74369;SDS011;71062;44.520;11.342;2024-01-30T17:48:49;46.03;;;21.35;;
74369;SDS011;71062;44.520;11.342;2024-01-30T17:51:15;47.15;;;22.85;;
74369;SDS011;71062;44.520;11.342;2024-01-30T17:53:41;46.28;;;22.40;;
74369;SDS011;71062;44.520;11.342;2024-01-30T17:56:07;46.00;;;21.77;;
74369;SDS011;71062;44.520;11.342;2024-01-30T17:58:36;42.63;;;21.05;;
74369;SDS011;71062;44.520;11.342;2024-01-30T18:01:06;47.63;;;22.00;;
74369;SDS011;71062;44.520;11.342;2024-01-30T18:03:32;48.03;;;24.00;;
74369;SDS011;71062;44.520;11.342;2024-01-30T18:05:58;42.10;;;21.85;;
74369;SDS011;71062;44.520;11.342;2024-01-30T18:08:25;50.30;;;23.10;;
74369;SDS011;71062;44.520;11.342;2024-01-30T18:10:51;45.67;;;22.42;;
74369;SDS011;71062;44.520;11.342;2024-01-30T18:13:17;50.92;;;21.98;;
74369;SDS011;71062;44.520;11.342;2024-01-30T18:15:43;42.67;;;22.02;;
74369;SDS011;71062;44.520;11.342;2024-01-30T18:18:10;46.95;;;22.58;;
74369;SDS011;71062;44.520;11.342;2024-01-30T18:20:39;50.83;;;23.65;;
74369;SDS011;71062;44.520;11.342;2024-01-30T18:23:07;49.42;;;24.00;;
74369;SDS011;71062;44.520;11.342;2024-01-30T18:25:33;48.17;;;23.08;;
74369;SDS011;71062;44.520;11.342;2024-01-30T18:27:59;48.78;;;22.00;;
74369;SDS011;71062;44.520;11.342;2024-01-30T18:30:26;47.03;;;23.15;;
74369;SDS011;71062;44.520;11.342;2024-01-30T18:32:52;53.80;;;23.33;;
74369;SDS011;71062;44.520;11.342;2024-01-30T18:35:18;47.00;;;22.23;;
74369;SDS011;71062;44.520;11.342;2024-01-30T18:37:44;48.97;;;23.25;;
74369;SDS011;71062;44.520;11.342;2024-01-30T18:40:09;46.03;;;22.58;;
74369;SDS011;71062;44.520;11.342;2024-01-30T18:42:36;46.15;;;22.88;;
74369;SDS011;71062;44.520;11.342;2024-01-30T18:45:02;48.05;;;21.90;;
74369;SDS011;71062;44.520;11.342;2024-01-30T18:47:29;47.03;;;23.75;;
74369;SDS011;71062;44.520;11.342;2024-01-30T18:49:55;48.58;;;22.40;;
74369;SDS011;71062;44.520;11.342;2024-01-30T18:52:20;48.75;;;22.83;;
74369;SDS011;71062;44.520;11.342;2024-01-30T18:54:46;47.33;;;23.77;;
74369;SDS011;71062;44.520;11.342;2024-01-30T18:57:12;48.47;;;23.45;;
74369;SDS011;71062;44.520;11.342;2024-01-30T18:59:38;51.22;;;22.35;;
74369;SDS011;71062;44.520;11.342;2024-01-30T19:02:03;49.80;;;22.83;;
74369;SDS011;71062;44.520;11.342;2024-01-30T19:04:29;47.90;;;22.48;;
74369;SDS011;71062;44.520;11.342;2024-01-30T19:06:55;50.53;;;24.02;;
74369;SDS011;71062;44.520;11.342;2024-01-30T19:09:21;51.63;;;24.30;;
74369;SDS011;71062;44.520;11.342;2024-01-30T19:11:47;54.90;;;25.05;;
74369;SDS011;71062;44.520;11.342;2024-01-30T19:14:14;51.85;;;22.50;;
74369;SDS011;71062;44.520;11.342;2024-01-30T19:16:40;49.85;;;21.85;;
74369;SDS011;71062;44.520;11.342;2024-01-30T19:19:05;46.15;;;22.08;;
74369;SDS011;71062;44.520;11.342;2024-01-30T19:21:34;52.42;;;22.58;;
74369;SDS011;71062;44.520;11.342;2024-01-30T19:24:03;50.42;;;23.42;;
74369;SDS011;71062;44.520;11.342;2024-01-30T19:26:29;53.50;;;23.63;;
74369;SDS011;71062;44.520;11.342;2024-01-30T19:28:55;51.17;;;23.50;;
74369;SDS011;71062;44.520;11.342;2024-01-30T19:31:22;49.80;;;24.23;;
74369;SDS011;71062;44.520;11.342;2024-01-30T19:33:48;49.38;;;22.35;;
74369;SDS011;71062;44.520;11.342;2024-01-30T19:36:14;51.85;;;22.48;;
74369;SDS011;71062;44.520;11.342;2024-01-30T19:38:40;55.22;;;25.42;;
74369;SDS011;71062;44.520;11.342;2024-01-30T19:41:06;53.83;;;24.95;;
74369;SDS011;71062;44.520;11.342;2024-01-30T19:43:36;53.05;;;24.05;;
74369;SDS011;71062;44.520;11.342;2024-01-30T19:46:02;50.28;;;23.75;;
74369;SDS011;71062;44.520;11.342;2024-01-30T19:48:28;45.75;;;20.02;;
74369;SDS011;71062;44.520;11.342;2024-01-30T19:50:54;43.05;;;19.23;;
74369;SDS011;71062;44.520;11.342;2024-01-30T19:53:20;39.28;;;17.95;;
74369;SDS011;71062;44.520;11.342;2024-01-30T19:55:46;48.55;;;23.40;;
74369;SDS011;71062;44.520;11.342;2024-01-30T19:58:11;53.78;;;23.88;;
74369;SDS011;71062;44.520;11.342;2024-01-30T20:00:38;45.63;;;19.92;;
74369;SDS011;71062;44.520;11.342;2024-01-30T20:03:04;47.60;;;20.05;;
74369;SDS011;71062;44.520;11.342;2024-01-30T20:05:30;46.78;;;21.80;;
74369;SDS011;71062;44.520;11.342;2024-01-30T20:07:56;48.33;;;21.05;;
74369;SDS011;71062;44.520;11.342;2024-01-30T20:10:21;39.50;;;19.73;;
74369;SDS011;71062;44.520;11.342;2024-01-30T20:12:47;44.70;;;19.90;;
74369;SDS011;71062;44.520;11.342;2024-01-30T20:15:13;41.60;;;19.13;;
74369;SDS011;71062;44.520;11.342;2024-01-30T20:17:40;45.80;;;20.33;;
74369;SDS011;71062;44.520;11.342;2024-01-30T20:20:09;44.45;;;19.95;;
74369;SDS011;71062;44.520;11.342;2024-01-30T20:22:35;44.05;;;19.65;;
74369;SDS011;71062;44.520;11.342;2024-01-30T20:25:02;46.90;;;21.15;;
74369;SDS011;71062;44.520;11.342;2024-01-30T20:27:28;44.58;;;17.75;;
74369;SDS011;71062;44.520;11.342;2024-01-30T20:29:54;43.55;;;19.20;;
74369;SDS011;71062;44.520;11.342;2024-01-30T20:32:20;42.53;;;19.23;;
74369;SDS011;71062;44.520;11.342;2024-01-30T20:34:46;45.42;;;18.45;;
74369;SDS011;71062;44.520;11.342;2024-01-30T20:37:12;45.83;;;19.23;;
74369;SDS011;71062;44.520;11.342;2024-01-30T20:39:37;40.22;;;19.13;;
74369;SDS011;71062;44.520;11.342;2024-01-30T20:42:06;41.08;;;18.10;;
74369;SDS011;71062;44.520;11.342;2024-01-30T20:44:33;46.17;;;18.80;;
74369;SDS011;71062;44.520;11.342;2024-01-30T20:46:58;44.80;;;19.95;;
74369;SDS011;71062;44.520;11.342;2024-01-30T20:49:24;43.45;;;18.42;;
74369;SDS011;71062;44.520;11.342;2024-01-30T20:51:50;49.08;;;18.83;;
74369;SDS011;71062;44.520;11.342;2024-01-30T20:54:15;42.67;;;18.90;;
74369;SDS011;71062;44.520;11.342;2024-01-30T20:56:41;44.50;;;18.85;;
74369;SDS011;71062;44.520;11.342;2024-01-30T20:59:08;42.45;;;19.42;;
74369;SDS011;71062;44.520;11.342;2024-01-30T21:01:33;38.05;;;17.73;;
74369;SDS011;71062;44.520;11.342;2024-01-30T21:03:59;39.90;;;18.17;;
74369;SDS011;71062;44.520;11.342;2024-01-30T21:06:24;44.63;;;18.42;;
74369;SDS011;71062;44.520;11.342;2024-01-30T21:08:50;40.40;;;18.48;;
74369;SDS011;71062;44.520;11.342;2024-01-30T21:11:16;47.88;;;19.48;;
74369;SDS011;71062;44.520;11.342;2024-01-30T21:13:45;46.33;;;19.13;;
74369;SDS011;71062;44.520;11.342;2024-01-30T21:16:11;38.72;;;17.42;;
74369;SDS011;71062;44.520;11.342;2024-01-30T21:18:37;46.20;;;19.50;;
74369;SDS011;71062;44.520;11.342;2024-01-30T21:21:06;45.90;;;19.52;;
74369;SDS011;71062;44.520;11.342;2024-01-30T21:23:31;39.45;;;19.15;;
74369;SDS011;71062;44.520;11.342;2024-01-30T21:25:57;44.55;;;18.75;;
74369;SDS011;71062;44.520;11.342;2024-01-30T21:28:23;43.75;;;18.40;;
74369;SDS011;71062;44.520;11.342;2024-01-30T21:30:49;40.33;;;17.88;;
74369;SDS011;71062;44.520;11.342;2024-01-30T21:33:15;42.53;;;18.05;;
74369;SDS011;71062;44.520;11.342;2024-01-30T21:35:40;39.53;;;17.42;;
74369;SDS011;71062;44.520;11.342;2024-01-30T21:38:06;45.75;;;18.15;;
74369;SDS011;71062;44.520;11.342;2024-01-30T21:40:32;39.10;;;17.92;;
74369;SDS011;71062;44.520;11.342;2024-01-30T21:42:57;35.20;;;15.95;;
74369;SDS011;71062;44.520;11.342;2024-01-30T21:45:23;33.70;;;15.93;;
74369;SDS011;71062;44.520;11.342;2024-01-30T21:47:50;34.22;;;14.32;;
74369;SDS011;71062;44.520;11.342;2024-01-30T21:50:19;41.50;;;15.13;;
74369;SDS011;71062;44.520;11.342;2024-01-30T21:52:45;38.50;;;17.10;;
74369;SDS011;71062;44.520;11.342;2024-01-30T21:55:11;37.55;;;15.63;;
74369;SDS011;71062;44.520;11.342;2024-01-30T21:57:37;35.95;;;16.83;;
74369;SDS011;71062;44.520;11.342;2024-01-30T22:00:03;37.67;;;17.40;;
74369;SDS011;71062;44.520;11.342;2024-01-30T22:02:30;36.33;;;16.67;;
74369;SDS011;71062;44.520;11.342;2024-01-30T22:04:56;41.08;;;17.73;;
74369;SDS011;71062;44.520;11.342;2024-01-30T22:07:22;36.40;;;16.65;;
74369;SDS011;71062;44.520;11.342;2024-01-30T22:09:48;42.88;;;18.00;;
74369;SDS011;71062;44.520;11.342;2024-01-30T22:12:14;38.35;;;17.33;;
74369;SDS011;71062;44.520;11.342;2024-01-30T22:14:39;42.67;;;17.38;;
74369;SDS011;71062;44.520;11.342;2024-01-30T22:17:05;45.55;;;17.42;;
74369;SDS011;71062;44.520;11.342;2024-01-30T22:19:31;40.13;;;15.25;;
74369;SDS011;71062;44.520;11.342;2024-01-30T22:21:56;36.15;;;15.68;;
74369;SDS011;71062;44.520;11.342;2024-01-30T22:24:22;35.50;;;16.13;;
74369;SDS011;71062;44.520;11.342;2024-01-30T22:26:48;31.58;;;14.70;;
74369;SDS011;71062;44.520;11.342;2024-01-30T22:29:14;27.38;;;12.90;;
74369;SDS011;71062;44.520;11.342;2024-01-30T22:31:40;28.00;;;11.95;;
74369;SDS011;71062;44.520;11.342;2024-01-30T22:34:06;27.63;;;13.40;;
74369;SDS011;71062;44.520;11.342;2024-01-30T22:36:32;28.88;;;11.95;;
74369;SDS011;71062;44.520;11.342;2024-01-30T22:39:01;32.85;;;13.20;;
74369;SDS011;71062;44.520;11.342;2024-01-30T22:41:30;28.48;;;11.07;;
74369;SDS011;71062;44.520;11.342;2024-01-30T22:43:56;32.88;;;12.43;;
74369;SDS011;71062;44.520;11.342;2024-01-30T22:46:22;33.30;;;15.27;;
74369;SDS011;71062;44.520;11.342;2024-01-30T22:48:48;32.72;;;14.85;;